sensor_id;sensor_type;location;lat;lon;timestamp;pressure;altitude;pressure_sealevel;temperature;humidity
25947;BME280;13745;51.470;9.894;2023-03-26T00:02:17;98340.41;;;10.98;69.31
25947;BME280;13745;51.470;9.894;2023-03-26T00:05:03;98330.88;;;11.01;69.41
25947;BME280;13745;51.470;9.894;2023-03-26T00:07:50;98330.81;;;11.02;69.57
25947;BME280;13745;51.470;9.894;2023-03-26T00:10:36;98343.66;;;11.05;69.57
25947;BME280;13745;51.470;9.894;2023-03-26T00:13:22;98345.28;;;11.09;69.40
25947;BME280;13745;51.470;9.894;2023-03-26T00:16:08;98355.50;;;11.14;69.51
25947;BME280;13745;51.470;9.894;2023-03-26T00:18:54;98347.59;;;11.17;69.32
25947;BME280;13745;51.470;9.894;2023-03-26T00:21:40;98357.06;;;11.19;69.52
25947;BME280;13745;51.470;9.894;2023-03-26T00:24:26;98364.72;;;11.22;69.64
25947;BME280;13745;51.470;9.894;2023-03-26T00:27:12;98365.50;;;11.26;69.78
25947;BME280;13745;51.470;9.894;2023-03-26T00:29:57;98357.66;;;11.28;69.70
25947;BME280;13745;51.470;9.894;2023-03-26T00:32:43;98362.78;;;11.29;69.81
25947;BME280;13745;51.470;9.894;2023-03-26T00:35:28;98364.41;;;11.32;69.96
25947;BME280;13745;51.470;9.894;2023-03-26T00:38:13;98357.47;;;11.32;69.76
25947;BME280;13745;51.470;9.894;2023-03-26T00:41:00;98351.38;;;11.33;69.94
25947;BME280;13745;51.470;9.894;2023-03-26T00:43:50;98341.84;;;11.35;70.00
25947;BME280;13745;51.470;9.894;2023-03-26T00:46:36;98346.13;;;11.36;70.09
25947;BME280;13745;51.470;9.894;2023-03-26T00:49:21;98349.63;;;11.35;69.90
25947;BME280;13745;51.470;9.894;2023-03-26T00:52:09;98341.84;;;11.35;69.93
25947;BME280;13745;51.470;9.894;2023-03-26T00:54:55;98341.00;;;11.35;70.03
25947;BME280;13745;51.470;9.894;2023-03-26T00:57:41;98340.09;;;11.36;70.01
25947;BME280;13745;51.470;9.894;2023-03-26T01:00:30;98336.59;;;11.37;69.95
25947;BME280;13745;51.470;9.894;2023-03-26T01:03:18;98345.22;;;11.37;70.05
25947;BME280;13745;51.470;9.894;2023-03-26T01:06:06;98342.63;;;11.37;70.22
25947;BME280;13745;51.470;9.894;2023-03-26T01:08:53;98337.38;;;11.39;69.97
25947;BME280;13745;51.470;9.894;2023-03-26T01:11:43;98340.81;;;11.39;70.08
25947;BME280;13745;51.470;9.894;2023-03-26T01:14:30;98340.75;;;11.41;70.22
25947;BME280;13745;51.470;9.894;2023-03-26T01:17:16;98350.25;;;11.42;69.96
25947;BME280;13745;51.470;9.894;2023-03-26T01:20:07;98342.50;;;11.40;70.21
25947;BME280;13745;51.470;9.894;2023-03-26T01:23:01;98334.66;;;11.43;70.08
25947;BME280;13745;51.470;9.894;2023-03-26T01:25:54;98339.78;;;11.45;69.76
25947;BME280;13745;51.470;9.894;2023-03-26T01:28:42;98337.19;;;11.45;69.78
25947;BME280;13745;51.470;9.894;2023-03-26T01:31:31;98342.44;;;11.43;69.99
25947;BME280;13745;51.470;9.894;2023-03-26T01:34:25;98339.84;;;11.43;69.86
25947;BME280;13745;51.470;9.894;2023-03-26T01:37:18;98341.59;;;11.43;69.83
25947;BME280;13745;51.470;9.894;2023-03-26T01:40:11;98339.84;;;11.43;69.86
25947;BME280;13745;51.470;9.894;2023-03-26T01:43:05;98332.94;;;11.42;69.78
25947;BME280;13745;51.470;9.894;2023-03-26T01:45:52;98341.59;;;11.41;69.67
25947;BME280;13745;51.470;9.894;2023-03-26T01:48:40;98326.03;;;11.41;69.64
25947;BME280;13745;51.470;9.894;2023-03-26T01:51:27;98327.84;;;11.39;69.59
25947;BME280;13745;51.470;9.894;2023-03-26T01:54:15;98329.59;;;11.39;69.57
25947;BME280;13745;51.470;9.894;2023-03-26T01:57:09;98337.31;;;11.40;69.62
25947;BME280;13745;51.470;9.894;2023-03-26T02:00:00;98319.69;;;11.50;69.38
25947;BME280;13745;51.470;9.894;2023-03-26T02:03:04;98329.72;;;11.36;69.04
25947;BME280;13745;51.470;9.894;2023-03-26T02:05:55;98331.53;;;11.32;69.34
25947;BME280;13745;51.470;9.894;2023-03-26T02:08:46;98338.47;;;11.32;69.52
25947;BME280;13745;51.470;9.894;2023-03-26T02:11:36;98334.97;;;11.33;69.27
25947;BME280;13745;51.470;9.894;2023-03-26T02:14:23;98333.34;;;11.30;69.56
25947;BME280;13745;51.470;9.894;2023-03-26T02:17:10;98339.31;;;11.32;69.51
25947;BME280;13745;51.470;9.894;2023-03-26T02:19:55;98338.41;;;11.33;69.34
25947;BME280;13745;51.470;9.894;2023-03-26T02:22:41;98334.09;;;11.34;69.30
25947;BME280;13745;51.470;9.894;2023-03-26T02:25:29;98331.47;;;11.35;69.46
25947;BME280;13745;51.470;9.894;2023-03-26T02:28:15;98329.66;;;11.37;69.78
25947;BME280;13745;51.470;9.894;2023-03-26T02:31:01;98326.16;;;11.38;69.44
25947;BME280;13745;51.470;9.894;2023-03-26T02:33:48;98324.47;;;11.37;69.36
25947;BME280;13745;51.470;9.894;2023-03-26T02:36:34;98326.16;;;11.38;69.41
25947;BME280;13745;51.470;9.894;2023-03-26T02:39:21;98331.22;;;11.41;69.49
25947;BME280;13745;51.470;9.894;2023-03-26T02:42:12;98323.41;;;11.43;69.28
25947;BME280;13745;51.470;9.894;2023-03-26T02:45:05;98329.44;;;11.43;69.37
25947;BME280;13745;51.470;9.894;2023-03-26T02:48:09;98332.06;;;11.43;69.27
25947;BME280;13745;51.470;9.894;2023-03-26T02:51:04;98322.50;;;11.44;69.16
25947;BME280;13745;51.470;9.894;2023-03-26T02:54:09;98326.81;;;11.45;69.33
25947;BME280;13745;51.470;9.894;2023-03-26T02:57:00;98323.38;;;11.44;69.36
25947;BME280;13745;51.470;9.894;2023-03-26T03:00:06;98331.03;;;11.47;69.28
25947;BME280;13745;51.470;9.894;2023-03-26T03:03:07;98322.34;;;11.48;69.24
25947;BME280;13745;51.470;9.894;2023-03-26T03:06:12;98319.75;;;11.48;69.20
25947;BME280;13745;51.470;9.894;2023-03-26T03:09:04;98314.47;;;11.51;69.24
25947;BME280;13745;51.470;9.894;2023-03-26T03:11:52;98314.41;;;11.53;69.16
25947;BME280;13745;51.470;9.894;2023-03-26T03:14:38;98311.81;;;11.53;68.99
25947;BME280;13745;51.470;9.894;2023-03-26T03:17:23;98316.94;;;11.54;69.05
25947;BME280;13745;51.470;9.894;2023-03-26T03:20:08;98314.34;;;11.54;68.92
25947;BME280;13745;51.470;9.894;2023-03-26T03:22:58;98307.47;;;11.53;69.07
25947;BME280;13745;51.470;9.894;2023-03-26T03:25:43;98307.53;;;11.52;69.10
25947;BME280;13745;51.470;9.894;2023-03-26T03:28:28;98306.69;;;11.51;69.15
25947;BME280;13745;51.470;9.894;2023-03-26T03:31:14;98310.13;;;11.52;69.01
25947;BME280;13745;51.470;9.894;2023-03-26T03:33:59;98305.84;;;11.51;69.01
25947;BME280;13745;51.470;9.894;2023-03-26T03:36:47;98308.47;;;11.49;69.14
25947;BME280;13745;51.470;9.894;2023-03-26T03:39:48;98303.38;;;11.46;69.24
25947;BME280;13745;51.470;9.894;2023-03-26T03:42:37;98319.81;;;11.47;69.33
25947;BME280;13745;51.470;9.894;2023-03-26T03:45:23;98307.78;;;11.44;69.25
25947;BME280;13745;51.470;9.894;2023-03-26T03:48:24;98305.25;;;11.43;69.29
25947;BME280;13745;51.470;9.894;2023-03-26T03:51:10;98304.41;;;11.42;69.40
25947;BME280;13745;51.470;9.894;2023-03-26T03:54:13;98306.19;;;11.40;69.40
25947;BME280;13745;51.470;9.894;2023-03-26T03:57:03;98300.25;;;11.37;69.34
25947;BME280;13745;51.470;9.894;2023-03-26T03:59:51;98299.41;;;11.36;69.24
25947;BME280;13745;51.470;9.894;2023-03-26T04:02:36;98293.38;;;11.36;69.48
25947;BME280;13745;51.470;9.894;2023-03-26T04:05:22;98295.97;;;11.36;69.50
25947;BME280;13745;51.470;9.894;2023-03-26T04:08:08;98296.88;;;11.35;69.36
25947;BME280;13745;51.470;9.894;2023-03-26T04:11:02;98290.00;;;11.34;69.53
25947;BME280;13745;51.470;9.894;2023-03-26T04:14:07;98294.38;;;11.32;69.50
25947;BME280;13745;51.470;9.894;2023-03-26T04:17:11;98286.66;;;11.30;69.82
25947;BME280;13745;51.470;9.894;2023-03-26T04:19:58;98286.66;;;11.30;69.60
25947;BME280;13745;51.470;9.894;2023-03-26T04:22:53;98285.75;;;11.31;69.58
25947;BME280;13745;51.470;9.894;2023-03-26T04:25:44;98278.94;;;11.29;69.71
25947;BME280;13745;51.470;9.894;2023-03-26T04:28:41;98279.78;;;11.29;69.56
25947;BME280;13745;51.470;9.894;2023-03-26T04:31:37;98278.06;;;11.28;69.52
25947;BME280;13745;51.470;9.894;2023-03-26T04:34:24;98276.31;;;11.29;69.49
25947;BME280;13745;51.470;9.894;2023-03-26T04:37:27;98259.13;;;11.26;69.52
25947;BME280;13745;51.470;9.894;2023-03-26T04:40:24;98266.06;;;11.25;69.43
25947;BME280;13745;51.470;9.894;2023-03-26T04:43:11;98265.19;;;11.25;69.63
25947;BME280;13745;51.470;9.894;2023-03-26T04:46:30;98266.84;;;11.28;69.33
25947;BME280;13745;51.470;9.894;2023-03-26T04:49:30;98257.47;;;11.23;69.50
25947;BME280;13745;51.470;9.894;2023-03-26T04:52:15;98254.03;;;11.23;69.68
25947;BME280;13745;51.470;9.894;2023-03-26T04:55:23;98254.03;;;11.23;69.59
25947;BME280;13745;51.470;9.894;2023-03-26T04:58:17;98247.16;;;11.22;69.57
25947;BME280;13745;51.470;9.894;2023-03-26T05:01:10;98246.78;;;11.33;69.29
25947;BME280;13745;51.470;9.894;2023-03-26T05:03:59;98239.50;;;11.19;69.31
25947;BME280;13745;51.470;9.894;2023-03-26T05:06:47;98235.28;;;11.15;69.53
25947;BME280;13745;51.470;9.894;2023-03-26T05:09:44;98234.38;;;11.16;69.67
25947;BME280;13745;51.470;9.894;2023-03-26T05:12:40;98229.19;;;11.16;69.57
25947;BME280;13745;51.470;9.894;2023-03-26T05:15:29;98224.91;;;11.15;69.51
25947;BME280;13745;51.470;9.894;2023-03-26T05:18:15;98216.22;;;11.16;70.07
25947;BME280;13745;51.470;9.894;2023-03-26T05:21:07;98217.00;;;11.19;69.83
25947;BME280;13745;51.470;9.894;2023-03-26T05:23:54;98201.50;;;11.18;69.86
25947;BME280;13745;51.470;9.894;2023-03-26T05:26:40;98204.88;;;11.20;69.72
25947;BME280;13745;51.470;9.894;2023-03-26T05:29:25;98197.03;;;11.21;69.62
25947;BME280;13745;51.470;9.894;2023-03-26T05:32:11;98198.72;;;11.22;69.73
25947;BME280;13745;51.470;9.894;2023-03-26T05:34:57;98192.63;;;11.23;69.58
25947;BME280;13745;51.470;9.894;2023-03-26T05:37:42;98193.44;;;11.25;69.45
25947;BME280;13745;51.470;9.894;2023-03-26T05:40:29;98197.72;;;11.27;69.83
25947;BME280;13745;51.470;9.894;2023-03-26T05:43:16;98195.78;;;11.32;69.82
25947;BME280;13745;51.470;9.894;2023-03-26T05:46:13;98192.22;;;11.36;69.67
25947;BME280;13745;51.470;9.894;2023-03-26T05:48:59;98193.72;;;11.41;69.63
25947;BME280;13745;51.470;9.894;2023-03-26T05:51:47;98195.25;;;11.47;69.89
25947;BME280;13745;51.470;9.894;2023-03-26T05:54:55;98195.75;;;11.57;69.74
25947;BME280;13745;51.470;9.894;2023-03-26T05:58:13;98195.47;;;11.64;69.78
25947;BME280;13745;51.470;9.894;2023-03-26T06:01:24;98189.22;;;11.70;69.70
25947;BME280;13745;51.470;9.894;2023-03-26T06:04:28;98178.66;;;11.74;69.71
25947;BME280;13745;51.470;9.894;2023-03-26T06:07:33;98175.19;;;11.75;69.71
25947;BME280;13745;51.470;9.894;2023-03-26T06:10:32;98178.47;;;11.80;69.76
25947;BME280;13745;51.470;9.894;2023-03-26T06:13:18;98173.19;;;11.82;69.62
25947;BME280;13745;51.470;9.894;2023-03-26T06:16:07;98166.22;;;11.84;69.49
25947;BME280;13745;51.470;9.894;2023-03-26T06:19:01;98163.56;;;11.86;69.42
25947;BME280;13745;51.470;9.894;2023-03-26T06:22:05;98162.59;;;11.88;69.67
25947;BME280;13745;51.470;9.894;2023-03-26T06:25:06;98157.34;;;11.90;69.43
25947;BME280;13745;51.470;9.894;2023-03-26T06:28:19;98160.84;;;11.89;69.43
25947;BME280;13745;51.470;9.894;2023-03-26T06:31:29;98149.59;;;11.88;69.48
25947;BME280;13745;51.470;9.894;2023-03-26T06:34:34;98148.63;;;11.91;69.45
25947;BME280;13745;51.470;9.894;2023-03-26T06:37:19;98144.25;;;11.93;69.43
25947;BME280;13745;51.470;9.894;2023-03-26T06:40:06;98145.03;;;11.95;69.55
25947;BME280;13745;51.470;9.894;2023-03-26T06:43:09;98141.91;;;12.08;69.28
25947;BME280;13745;51.470;9.894;2023-03-26T06:46:08;98147.44;;;11.99;69.12
25947;BME280;13745;51.470;9.894;2023-03-26T06:49:31;98160.41;;;11.99;69.08
25947;BME280;13745;51.470;9.894;2023-03-26T06:52:43;98149.09;;;12.02;69.46
25947;BME280;13745;51.470;9.894;2023-03-26T06:55:41;98149.88;;;12.04;69.24
25947;BME280;13745;51.470;9.894;2023-03-26T06:58:45;98150.47;;;12.11;69.35
25947;BME280;13745;51.470;9.894;2023-03-26T07:01:51;98158.75;;;12.20;69.29
25947;BME280;13745;51.470;9.894;2023-03-26T07:04:55;98151.56;;;12.27;69.14
25947;BME280;13745;51.470;9.894;2023-03-26T07:07:59;98148.03;;;12.28;68.89
25947;BME280;13745;51.470;9.894;2023-03-26T07:11:04;98141.03;;;12.30;68.97
25947;BME280;13745;51.470;9.894;2023-03-26T07:14:09;98139.03;;;12.36;69.10
25947;BME280;13745;51.470;9.894;2023-03-26T07:17:08;98137.81;;;12.45;69.19
25947;BME280;13745;51.470;9.894;2023-03-26T07:20:03;98135.50;;;12.59;68.92
25947;BME280;13745;51.470;9.894;2023-03-26T07:22:49;98132.44;;;12.70;69.17
25947;BME280;13745;51.470;9.894;2023-03-26T07:26:11;98116.88;;;12.89;69.21
25947;BME280;13745;51.470;9.894;2023-03-26T07:29:22;98117.84;;;13.07;68.85
25947;BME280;13745;51.470;9.894;2023-03-26T07:32:27;98115.41;;;13.24;68.42
25947;BME280;13745;51.470;9.894;2023-03-26T07:35:20;98109.56;;;13.38;68.59
25947;BME280;13745;51.470;9.894;2023-03-26T07:38:35;98110.47;;;13.56;68.49
25947;BME280;13745;51.470;9.894;2023-03-26T07:41:49;98108.06;;;13.70;68.14
25947;BME280;13745;51.470;9.894;2023-03-26T07:44:56;98104.13;;;13.80;68.16
25947;BME280;13745;51.470;9.894;2023-03-26T07:47:57;98096.78;;;13.88;67.45
25947;BME280;13745;51.470;9.894;2023-03-26T07:51:21;98098.09;;;13.97;67.11
25947;BME280;13745;51.470;9.894;2023-03-26T07:54:19;98094.38;;;14.02;66.51
25947;BME280;13745;51.470;9.894;2023-03-26T07:57:34;98087.78;;;14.13;66.88
25947;BME280;13745;51.470;9.894;2023-03-26T08:00:45;98095.63;;;14.30;66.62
25947;BME280;13745;51.470;9.894;2023-03-26T08:03:50;98087.09;;;14.45;67.05
25947;BME280;13745;51.470;9.894;2023-03-26T08:07:01;98088.00;;;14.61;66.10
25947;BME280;13745;51.470;9.894;2023-03-26T08:10:13;98075.88;;;14.78;66.22
25947;BME280;13745;51.470;9.894;2023-03-26T08:13:24;98081.91;;;14.96;65.50
25947;BME280;13745;51.470;9.894;2023-03-26T08:16:13;98080.56;;;15.04;65.38
25947;BME280;13745;51.470;9.894;2023-03-26T08:19:11;98089.63;;;15.14;65.30
25947;BME280;13745;51.470;9.894;2023-03-26T08:22:03;98088.53;;;15.18;64.53
25947;BME280;13745;51.470;9.894;2023-03-26T08:25:07;98089.13;;;15.24;64.54
25947;BME280;13745;51.470;9.894;2023-03-26T08:28:04;98088.03;;;15.28;64.54
25947;BME280;13745;51.470;9.894;2023-03-26T08:30:55;98086.19;;;15.30;64.28
25947;BME280;13745;51.470;9.894;2023-03-26T08:33:40;98086.03;;;15.33;64.10
25947;BME280;13745;51.470;9.894;2023-03-26T08:36:27;98090.91;;;15.39;63.86
25947;BME280;13745;51.470;9.894;2023-03-26T08:39:14;98081.81;;;15.46;63.84
25947;BME280;13745;51.470;9.894;2023-03-26T08:45:34;98072.09;;;15.65;63.63
25947;BME280;13745;51.470;9.894;2023-03-26T08:48:58;98068.88;;;15.76;63.52
25947;BME280;13745;51.470;9.894;2023-03-26T08:52:19;98062.81;;;15.91;63.55
25947;BME280;13745;51.470;9.894;2023-03-26T08:55:38;98062.09;;;16.04;63.21
25947;BME280;13745;51.470;9.894;2023-03-26T08:58:42;98054.16;;;16.05;62.71
25947;BME280;13745;51.470;9.894;2023-03-26T09:02:09;98053.06;;;16.09;62.58
25947;BME280;13745;51.470;9.894;2023-03-26T09:05:22;98045.47;;;16.05;61.99
25947;BME280;13745;51.470;9.894;2023-03-26T09:08:50;98047.34;;;16.02;62.15
25947;BME280;13745;51.470;9.894;2023-03-26T09:18:50;98034.03;;;16.07;61.79
25947;BME280;13745;51.470;9.894;2023-03-26T09:21:58;98027.97;;;16.07;61.60
25947;BME280;13745;51.470;9.894;2023-03-26T09:25:15;98024.56;;;16.05;61.76
25947;BME280;13745;51.470;9.894;2023-03-26T09:31:46;98020.81;;;15.94;61.45
25947;BME280;13745;51.470;9.894;2023-03-26T09:34:50;98015.09;;;15.88;61.38
25947;BME280;13745;51.470;9.894;2023-03-26T09:37:56;98023.09;;;15.85;61.46
25947;BME280;13745;51.470;9.894;2023-03-26T09:40:52;98010.22;;;15.82;60.94
25947;BME280;13745;51.470;9.894;2023-03-26T09:43:50;98006.19;;;15.76;61.11
25947;BME280;13745;51.470;9.894;2023-03-26T09:46:45;98008.88;;;15.75;61.03
25947;BME280;13745;51.470;9.894;2023-03-26T09:49:44;98000.44;;;15.69;61.04
25947;BME280;13745;51.470;9.894;2023-03-26T09:52:48;98004.00;;;15.68;60.96
25947;BME280;13745;51.470;9.894;2023-03-26T09:55:56;98002.50;;;15.64;60.75
25947;BME280;13745;51.470;9.894;2023-03-26T09:58:58;98004.34;;;15.62;60.88
25947;BME280;13745;51.470;9.894;2023-03-26T10:01:52;98005.50;;;15.57;60.69
25947;BME280;13745;51.470;9.894;2023-03-26T10:05:02;98000.44;;;15.54;60.75
25947;BME280;13745;51.470;9.894;2023-03-26T10:08:03;98000.84;;;15.46;60.70
25947;BME280;13745;51.470;9.894;2023-03-26T10:10:58;98000.44;;;15.38;60.74
25947;BME280;13745;51.470;9.894;2023-03-26T10:13:55;98003.31;;;15.33;61.05
25947;BME280;13745;51.470;9.894;2023-03-26T10:16:51;97994.97;;;15.27;61.30
25947;BME280;13745;51.470;9.894;2023-03-26T10:19:48;97996.97;;;15.22;61.69
25947;BME280;13745;51.470;9.894;2023-03-26T10:22:47;97993.53;;;15.21;61.97
25947;BME280;13745;51.470;9.894;2023-03-26T10:29:07;97992.69;;;15.21;62.32
25947;BME280;13745;51.470;9.894;2023-03-26T10:32:05;97991.94;;;15.18;62.65
25947;BME280;13745;51.470;9.894;2023-03-26T10:35:02;97986.97;;;15.14;62.38
25947;BME280;13745;51.470;9.894;2023-03-26T10:38:00;97989.00;;;15.09;62.44
25947;BME280;13745;51.470;9.894;2023-03-26T10:40:57;97995.22;;;15.06;62.50
25947;BME280;13745;51.470;9.894;2023-03-26T10:47:48;98002.34;;;14.87;62.20
25947;BME280;13745;51.470;9.894;2023-03-26T10:50:51;97994.25;;;14.76;62.15
25947;BME280;13745;51.470;9.894;2023-03-26T10:53:42;97993.06;;;14.66;62.42
25947;BME280;13745;51.470;9.894;2023-03-26T10:56:33;97995.13;;;14.59;62.33
25947;BME280;13745;51.470;9.894;2023-03-26T10:59:20;97988.53;;;14.52;62.66
25947;BME280;13745;51.470;9.894;2023-03-26T11:02:25;97996.59;;;14.47;63.16
25947;BME280;13745;51.470;9.894;2023-03-26T11:05:38;97988.91;;;14.44;63.89
25947;BME280;13745;51.470;9.894;2023-03-26T11:08:32;97980.53;;;14.38;63.87
25947;BME280;13745;51.470;9.894;2023-03-26T11:11:25;97988.44;;;14.36;63.96
25947;BME280;13745;51.470;9.894;2023-03-26T11:14:16;97988.44;;;14.36;64.30
25947;BME280;13745;51.470;9.894;2023-03-26T11:17:11;97987.84;;;14.31;64.63
25947;BME280;13745;51.470;9.894;2023-03-26T11:20:06;97992.47;;;14.26;64.69
25947;BME280;13745;51.470;9.894;2023-03-26T11:23:02;97988.31;;;14.22;65.27
25947;BME280;13745;51.470;9.894;2023-03-26T11:26:01;97992.75;;;14.20;65.01
25947;BME280;13745;51.470;9.894;2023-03-26T11:29:00;97993.69;;;14.19;65.18
25947;BME280;13745;51.470;9.894;2023-03-26T11:31:55;97995.53;;;14.17;65.22
25947;BME280;13745;51.470;9.894;2023-03-26T11:34:51;97994.06;;;14.11;65.28
25947;BME280;13745;51.470;9.894;2023-03-26T11:37:45;97994.16;;;14.10;65.23
25947;BME280;13745;51.470;9.894;2023-03-26T11:40:33;97991.66;;;14.06;65.68
25947;BME280;13745;51.470;9.894;2023-03-26T11:43:22;97997.59;;;14.10;65.46
25947;BME280;13745;51.470;9.894;2023-03-26T11:46:11;98001.97;;;14.10;65.55
25947;BME280;13745;51.470;9.894;2023-03-26T11:48:58;97991.63;;;14.08;65.69
25947;BME280;13745;51.470;9.894;2023-03-26T11:51:45;97986.41;;;14.08;66.03
25947;BME280;13745;51.470;9.894;2023-03-26T11:54:31;97992.47;;;14.09;65.70
25947;BME280;13745;51.470;9.894;2023-03-26T11:57:21;97986.31;;;14.10;65.90
25947;BME280;13745;51.470;9.894;2023-03-26T12:00:13;97989.69;;;14.12;65.96
25947;BME280;13745;51.470;9.894;2023-03-26T12:03:02;97989.47;;;14.16;66.14
25947;BME280;13745;51.470;9.894;2023-03-26T12:05:56;97992.91;;;14.17;65.84
25947;BME280;13745;51.470;9.894;2023-03-26T12:08:45;97979.91;;;14.17;65.54
25947;BME280;13745;51.470;9.894;2023-03-26T12:11:32;97981.72;;;14.15;65.29
25947;BME280;13745;51.470;9.894;2023-03-26T12:14:21;97986.25;;;14.11;65.34
25947;BME280;13745;51.470;9.894;2023-03-26T12:17:11;97982.13;;;14.07;65.41
25947;BME280;13745;51.470;9.894;2023-03-26T12:19:57;97989.06;;;14.06;65.53
25947;BME280;13745;51.470;9.894;2023-03-26T12:22:42;97981.41;;;14.03;65.83
25947;BME280;13745;51.470;9.894;2023-03-26T12:25:32;97972.75;;;14.03;65.76
25947;BME280;13745;51.470;9.894;2023-03-26T12:28:18;97967.47;;;14.04;65.81
25947;BME280;13745;51.470;9.894;2023-03-26T12:31:06;97970.00;;;14.06;65.50
25947;BME280;13745;51.470;9.894;2023-03-26T12:34:06;97966.50;;;14.07;65.61
25947;BME280;13745;51.470;9.894;2023-03-26T12:36:57;97975.06;;;14.09;65.88
25947;BME280;13745;51.470;9.894;2023-03-26T12:39:43;97963.72;;;14.10;65.99
25947;BME280;13745;51.470;9.894;2023-03-26T12:42:32;97970.53;;;14.13;66.02
25947;BME280;13745;51.470;9.894;2023-03-26T12:45:19;97964.38;;;14.14;65.64
25947;BME280;13745;51.470;9.894;2023-03-26T12:48:06;97961.03;;;14.12;65.70
25947;BME280;13745;51.470;9.894;2023-03-26T12:51:03;97962.88;;;14.10;65.87
25947;BME280;13745;51.470;9.894;2023-03-26T12:54:12;97959.44;;;14.09;66.14
25947;BME280;13745;51.470;9.894;2023-03-26T12:57:15;97956.91;;;14.08;66.29
25947;BME280;13745;51.470;9.894;2023-03-26T13:00:16;97952.53;;;14.08;66.36
25947;BME280;13745;51.470;9.894;2023-03-26T13:03:17;97953.50;;;14.05;66.37
25947;BME280;13745;51.470;9.894;2023-03-26T13:06:22;97954.44;;;14.04;66.59
25947;BME280;13745;51.470;9.894;2023-03-26T13:09:27;97944.34;;;13.98;66.58
25947;BME280;13745;51.470;9.894;2023-03-26T13:12:25;97939.34;;;13.94;66.60
25947;BME280;13745;51.470;9.894;2023-03-26T13:15:21;97941.28;;;13.90;66.57
25947;BME280;13745;51.470;9.894;2023-03-26T13:18:18;97935.38;;;13.87;66.82
25947;BME280;13745;51.470;9.894;2023-03-26T13:21:10;97937.13;;;13.86;66.67
25947;BME280;13745;51.470;9.894;2023-03-26T13:24:08;97936.28;;;13.86;66.96
25947;BME280;13745;51.470;9.894;2023-03-26T13:27:14;97920.03;;;13.81;66.74
25947;BME280;13745;51.470;9.894;2023-03-26T13:30:09;97927.19;;;13.77;66.55
25947;BME280;13745;51.470;9.894;2023-03-26T13:33:16;97921.34;;;13.72;66.30
25947;BME280;13745;51.470;9.894;2023-03-26T13:36:08;97930.53;;;13.62;66.06
25947;BME280;13745;51.470;9.894;2023-03-26T13:39:08;97917.81;;;13.56;65.94
25947;BME280;13745;51.470;9.894;2023-03-26T13:42:11;97908.56;;;13.50;66.12
25947;BME280;13745;51.470;9.894;2023-03-26T13:45:05;97909.47;;;13.49;66.07
25947;BME280;13745;51.470;9.894;2023-03-26T13:47:56;97912.91;;;13.49;66.41
25947;BME280;13745;51.470;9.894;2023-03-26T13:50:50;97905.13;;;13.49;66.63
25947;BME280;13745;51.470;9.894;2023-03-26T13:53:43;97904.19;;;13.51;66.30
25947;BME280;13745;51.470;9.894;2023-03-26T13:56:34;97910.06;;;13.54;66.83
25947;BME280;13745;51.470;9.894;2023-03-26T13:59:27;97902.19;;;13.56;66.93
25947;BME280;13745;51.470;9.894;2023-03-26T14:02:18;97903.03;;;13.56;66.79
25947;BME280;13745;51.470;9.894;2023-03-26T14:05:08;97905.63;;;13.56;66.44
25947;BME280;13745;51.470;9.894;2023-03-26T14:08:00;97898.81;;;13.54;66.65
25947;BME280;13745;51.470;9.894;2023-03-26T14:10:51;97898.75;;;13.55;66.29
25947;BME280;13745;51.470;9.894;2023-03-26T14:13:42;97893.63;;;13.54;66.73
25947;BME280;13745;51.470;9.894;2023-03-26T14:16:34;97896.06;;;13.57;66.92
25947;BME280;13745;51.470;9.894;2023-03-26T14:19:40;97883.03;;;13.57;67.06
25947;BME280;13745;51.470;9.894;2023-03-26T14:22:34;97891.63;;;13.59;66.98
25947;BME280;13745;51.470;9.894;2023-03-26T14:25:38;97883.75;;;13.60;67.21
25947;BME280;13745;51.470;9.894;2023-03-26T14:28:54;97885.25;;;13.64;67.23
25947;BME280;13745;51.470;9.894;2023-03-26T14:31:45;97878.38;;;13.63;67.15
25947;BME280;13745;51.470;9.894;2023-03-26T14:34:41;97884.38;;;13.65;67.02
25947;BME280;13745;51.470;9.894;2023-03-26T14:37:46;97884.22;;;13.68;67.40
25947;BME280;13745;51.470;9.894;2023-03-26T14:40:48;97881.53;;;13.70;66.87
25947;BME280;13745;51.470;9.894;2023-03-26T14:43:51;97873.78;;;13.68;66.64
25947;BME280;13745;51.470;9.894;2023-03-26T14:47:12;97878.16;;;13.68;66.57
25947;BME280;13745;51.470;9.894;2023-03-26T14:50:27;97867.13;;;13.63;67.16
25947;BME280;13745;51.470;9.894;2023-03-26T14:53:25;97871.50;;;13.62;67.00
25947;BME280;13745;51.470;9.894;2023-03-26T14:56:43;97868.78;;;13.64;67.19
25947;BME280;13745;51.470;9.894;2023-03-26T15:07:19;97860.69;;;13.70;67.49
25947;BME280;13745;51.470;9.894;2023-03-26T15:10:41;97861.34;;;13.73;67.28
25947;BME280;13745;51.470;9.894;2023-03-26T15:13:43;97861.44;;;13.72;67.08
25947;BME280;13745;51.470;9.894;2023-03-26T15:17:06;97850.91;;;13.75;67.34
25947;BME280;13745;51.470;9.894;2023-03-26T15:23:33;97868.13;;;13.77;67.30
25947;BME280;13745;51.470;9.894;2023-03-26T15:26:57;97862.91;;;13.77;67.26
25947;BME280;13745;51.470;9.894;2023-03-26T15:30:34;97867.28;;;13.77;67.42
25947;BME280;13745;51.470;9.894;2023-03-26T15:33:51;97870.81;;;13.76;67.34
25947;BME280;13745;51.470;9.894;2023-03-26T15:40:19;97865.06;;;13.69;67.65
25947;BME280;13745;51.470;9.894;2023-03-26T15:43:10;97875.56;;;13.68;67.40
25947;BME280;13745;51.470;9.894;2023-03-26T15:46:23;97872.88;;;13.69;67.55
25947;BME280;13745;51.470;9.894;2023-03-26T15:49:11;97871.28;;;13.67;67.62
25947;BME280;13745;51.470;9.894;2023-03-26T15:52:07;97874.84;;;13.64;67.33
25947;BME280;13745;51.470;9.894;2023-03-26T15:55:24;97867.03;;;13.64;67.87
25947;BME280;13745;51.470;9.894;2023-03-26T15:58:17;97868.13;;;13.60;67.64
25947;BME280;13745;51.470;9.894;2023-03-26T16:01:13;97868.13;;;13.60;68.12
25947;BME280;13745;51.470;9.894;2023-03-26T16:04:13;97874.16;;;13.61;68.04
25947;BME280;13745;51.470;9.894;2023-03-26T16:07:04;97873.41;;;13.59;67.73
25947;BME280;13745;51.470;9.894;2023-03-26T16:10:02;97873.53;;;13.56;67.99